Time;durP1;ratioP1;P1;durP2;ratioP2;P2;SDS_P1;SDS_P2;PMS_P1;PMS_P2;Temp;Humidity;BMP_temperature;BMP_pressure;BME280_temperature;BME280_humidity;BME280_pressure;Samples;Min_cycle;Max_cycle;Signal;HPM_P1;HPM_P2
2022/04/26 03:36:34;;;;;;;18.30;4.68;;;6.30;99.90;;;;;;5109281;28;20052;-78
2022/04/26 03:38:59;;;;;;;11.23;4.25;;;6.30;99.90;;;;;;5091446;28;20043;-76
2022/04/26 03:41:25;;;;;;;10.13;4.30;;;6.30;99.90;;;;;;5109210;28;20680;-75
2022/04/26 03:43:51;;;;;;;14.35;4.97;;;6.30;99.90;;;;;;5109047;28;20074;-77
2022/04/26 03:46:17;;;;;;;12.95;4.00;;;6.20;99.90;;;;;;5109025;28;20415;-77
2022/04/26 03:48:42;;;;;;;12.93;4.13;;;6.20;99.90;;;;;;5108649;28;20052;-75
2022/04/26 03:51:08;;;;;;;12.23;4.10;;;6.60;99.90;;;;;;5109711;28;20047;-75
2022/04/26 03:53:34;;;;;;;9.25;3.70;;;6.20;99.90;;;;;;5109831;28;20067;-76
2022/04/26 03:55:59;;;;;;;9.65;3.47;;;6.20;99.90;;;;;;5108947;28;20391;-77
2022/04/26 03:58:26;;;;;;;12.32;4.82;;;6.20;99.90;;;;;;5103461;28;20126;-75
2022/04/26 04:00:53;;;;;;;13.48;4.13;;;6.20;99.90;;;;;;5098896;28;20151;-74
2022/04/26 04:03:19;;;;;;;14.98;3.72;;;6.30;99.90;;;;;;5100550;28;20040;-75
2022/04/26 04:05:44;;;;;;;11.95;3.42;;;6.30;99.90;;;;;;5101220;28;20059;-76
2022/04/26 04:08:10;;;;;;;11.73;3.47;;;6.30;99.90;;;;;;5101122;28;20051;-76
2022/04/26 04:10:36;;;;;;;14.55;4.03;;;6.30;99.90;;;;;;5099471;28;20675;-76
2022/04/26 04:13:01;;;;;;;16.35;4.30;;;6.30;99.90;;;;;;5104713;28;20031;-75
2022/04/26 04:15:27;;;;;;;12.38;4.40;;;6.30;99.90;;;;;;5125700;27;20039;-76
2022/04/26 04:17:53;;;;;;;11.10;4.63;;;6.30;99.90;;;;;;5108412;28;20114;-76
2022/04/26 04:20:19;;;;;;;13.90;3.63;;;6.30;99.90;;;;;;5110507;28;20070;-77
2022/04/26 04:22:45;;;;;;;11.65;4.00;;;6.30;99.90;;;;;;5108169;28;20486;-76
2022/04/26 04:25:11;;;;;;;11.60;3.80;;;6.40;99.90;;;;;;5108822;28;20035;-77
2022/04/26 04:27:37;;;;;;;12.23;3.78;;;6.40;99.90;;;;;;5109893;28;20514;-77
2022/04/26 04:30:03;;;;;;;13.02;4.28;;;6.40;99.90;;;;;;5110023;27;20082;-77
2022/04/26 04:32:29;;;;;;;13.88;3.92;;;6.40;99.90;;;;;;5108605;28;20044;-77
2022/04/26 04:34:55;;;;;;;11.40;4.30;;;6.40;99.90;;;;;;5108466;28;20046;-77
2022/04/26 04:37:22;;;;;;;14.80;4.55;;;6.40;99.90;;;;;;5109510;28;20036;-76
2022/04/26 04:39:49;;;;;;;14.70;4.70;;;7.90;99.90;;;;;;5109361;28;20039;-77
2022/04/26 04:42:17;;;;;;;12.57;3.80;;;6.40;99.90;;;;;;5109092;28;20046;-76
2022/04/26 04:44:43;;;;;;;11.77;4.28;;;6.50;99.90;;;;;;5109573;28;20047;-77
2022/04/26 04:47:09;;;;;;;9.35;3.63;;;6.30;99.90;;;;;;5108495;28;20077;-77
2022/04/26 04:49:34;;;;;;;12.05;3.83;;;6.50;99.90;;;;;;5107457;28;20395;-77
2022/04/26 04:52:00;;;;;;;12.55;4.47;;;6.50;99.90;;;;;;5090784;28;20045;-77
2022/04/26 04:54:25;;;;;;;11.50;4.05;;;6.50;99.90;;;;;;5108488;28;20047;-75
2022/04/26 04:56:51;;;;;;;13.80;4.63;;;6.50;99.90;;;;;;5108528;28;20437;-75
2022/04/26 04:59:17;;;;;;;11.85;4.15;;;6.50;99.90;;;;;;5107615;28;20054;-76
2022/04/26 05:01:43;;;;;;;13.88;4.07;;;6.50;99.90;;;;;;5107113;28;20039;-76
2022/04/26 05:04:10;;;;;;;15.63;5.20;;;6.50;99.90;;;;;;5107198;28;20036;-77
2022/04/26 05:06:35;;;;;;;19.02;4.72;;;6.50;99.90;;;;;;5107685;28;20035;-76
2022/04/26 05:09:01;;;;;;;15.73;5.00;;;6.50;99.90;;;;;;5108248;28;20540;-77
2022/04/26 05:11:26;;;;;;;12.02;4.50;;;6.50;99.90;;;;;;5088948;28;20134;-77
2022/04/26 05:13:52;;;;;;;12.18;5.10;;;6.50;99.90;;;;;;5107429;28;20137;-76
2022/04/26 05:16:17;;;;;;;22.33;6.55;;;6.50;99.90;;;;;;5090687;28;20596;-76
2022/04/26 05:18:43;;;;;;;13.25;4.78;;;6.50;99.90;;;;;;5107882;28;20407;-76
2022/04/26 05:21:10;;;;;;;11.48;4.75;;;6.50;99.90;;;;;;5109299;28;20128;-77
2022/04/26 05:26:20;;;;;;;28.85;13.65;;;8.20;99.90;;;;;;5107370;28;20047;-77
2022/04/26 05:28:46;;;;;;;17.02;5.35;;;6.60;99.90;;;;;;5104384;28;20392;-77
2022/04/26 05:31:12;;;;;;;11.38;4.25;;;6.60;99.90;;;;;;5101018;28;20262;-77
2022/04/26 05:33:38;;;;;;;7.65;3.97;;;6.50;99.90;;;;;;5103538;28;20035;-77
2022/04/26 05:36:04;;;;;;;10.70;4.40;;;6.60;99.90;;;;;;5107163;28;20066;-77
2022/04/26 05:38:29;;;;;;;8.00;4.22;;;6.70;99.90;;;;;;5107378;28;20048;-76
2022/04/26 05:40:55;;;;;;;10.15;4.20;;;6.70;99.90;;;;;;5106614;28;20031;-76
2022/04/26 05:43:20;;;;;;;6.95;3.75;;;6.70;99.90;;;;;;5107401;28;20467;-75
2022/04/26 05:45:46;;;;;;;10.27;3.65;;;6.80;99.90;;;;;;5108268;28;20048;-77
2022/04/26 05:48:13;;;;;;;16.90;6.45;;;6.80;99.90;;;;;;5106913;28;20146;-76
2022/04/26 05:50:40;;;;;;;15.40;4.97;;;6.80;99.90;;;;;;5109029;28;20055;-77
2022/04/26 05:53:05;;;;;;;12.55;6.30;;;6.90;99.90;;;;;;5106643;28;20574;-76
2022/04/26 05:55:31;;;;;;;10.57;4.07;;;6.80;99.90;;;;;;5106529;28;20036;-77
2022/04/26 05:57:57;;;;;;;11.50;4.05;;;6.60;99.90;;;;;;4752563;28;10000187;-77
2022/04/26 06:00:22;;;;;;;6.28;3.65;;;7.00;99.90;;;;;;5105464;28;20062;-75
2022/04/26 06:02:49;;;;;;;8.73;3.47;;;6.70;99.90;;;;;;5087256;28;20123;-77
2022/04/26 06:05:14;;;;;;;5.50;2.90;;;7.10;99.90;;;;;;5088468;28;20323;-77
2022/04/26 06:07:40;;;;;;;16.13;3.88;;;7.10;99.90;;;;;;5105533;28;20454;-78
2022/04/26 06:10:07;;;;;;;10.70;5.15;;;7.20;99.90;;;;;;5087078;28;20044;-76
2022/04/26 06:12:34;;;;;;;13.52;5.50;;;7.20;99.90;;;;;;5106080;28;20040;-76
2022/04/26 06:15:01;;;;;;;8.32;3.35;;;7.30;99.90;;;;;;5070434;28;20043;-77
2022/04/26 06:17:27;;;;;;;12.85;3.60;;;6.90;99.90;;;;;;5088249;28;20040;-76
2022/04/26 06:19:52;;;;;;;16.92;3.65;;;7.40;99.90;;;;;;5106103;28;20046;-76
2022/04/26 06:22:18;;;;;;;13.07;3.13;;;7.50;99.90;;;;;;5104056;28;20040;-77
2022/04/26 06:24:44;;;;;;;12.20;3.58;;;6.90;99.90;;;;;;5088363;28;20051;-77
2022/04/26 06:27:10;;;;;;;9.43;2.75;;;7.50;99.90;;;;;;5104240;28;20470;-75
2022/04/26 06:29:35;;;;;;;10.55;2.90;;;7.50;99.90;;;;;;5103809;28;20069;-76
2022/04/26 06:32:02;;;;;;;6.88;2.50;;;7.70;99.90;;;;;;5104369;28;20118;-77
2022/04/26 06:34:28;;;;;;;9.27;2.63;;;7.70;99.90;;;;;;5105569;28;20040;-77
2022/04/26 06:36:54;;;;;;;8.95;2.50;;;7.80;99.90;;;;;;5090691;28;20402;-77
2022/04/26 06:39:19;;;;;;;13.25;3.20;;;7.50;99.90;;;;;;5091435;28;20042;-77
2022/04/26 06:41:46;;;;;;;9.18;3.03;;;7.90;99.90;;;;;;5104345;27;20223;-79
2022/04/26 06:44:12;;;;;;;14.68;3.42;;;8.00;99.90;;;;;;5103990;28;20051;-78
2022/04/26 06:46:38;;;;;;;11.13;2.97;;;8.10;99.90;;;;;;5108273;28;20036;-77
2022/04/26 06:49:05;;;;;;;10.93;3.63;;;8.90;99.90;;;;;;5109991;28;20505;-78
2022/04/26 06:51:35;;;;;;;9.98;3.13;;;8.10;99.90;;;;;;5112892;28;20040;-77
2022/04/26 06:54:01;;;;;;;6.57;3.20;;;8.60;99.90;;;;;;5111530;28;20086;-78
2022/04/26 06:56:27;;;;;;;7.18;2.80;;;8.20;99.90;;;;;;5085660;28;20047;-78
2022/04/26 06:58:53;;;;;;;7.53;2.50;;;8.60;99.90;;;;;;5107525;27;21627;-76
2022/04/26 07:01:18;;;;;;;9.07;2.97;;;8.60;99.90;;;;;;5113377;28;20087;-77
2022/04/26 07:03:44;;;;;;;7.18;2.40;;;8.30;99.90;;;;;;5094702;28;20463;-78
2022/04/26 07:06:09;;;;;;;8.98;3.30;;;8.20;99.90;;;;;;5103719;28;20119;-78
2022/04/26 07:08:35;;;;;;;10.15;2.58;;;8.20;99.90;;;;;;5111955;28;20510;-76
2022/04/26 07:11:01;;;;;;;10.40;3.03;;;8.20;99.90;;;;;;5112490;28;20483;-76
2022/04/26 07:13:27;;;;;;;9.02;2.80;;;8.20;99.90;;;;;;5095744;28;20043;-78
2022/04/26 07:15:53;;;;;;;8.65;2.85;;;8.20;99.90;;;;;;5112476;28;20063;-78
2022/04/26 07:18:18;;;;;;;7.88;3.40;;;9.60;99.90;;;;;;5112671;28;20036;-78
2022/04/26 07:20:44;;;;;;;9.07;2.95;;;8.40;99.90;;;;;;5112125;28;20395;-77
2022/04/26 07:23:10;;;;;;;6.22;2.25;;;8.40;99.90;;;;;;5094923;28;20043;-76
2022/04/26 07:25:35;;;;;;;8.88;2.63;;;8.40;99.90;;;;;;5111278;28;20525;-78
2022/04/26 07:28:01;;;;;;;6.72;2.65;;;8.50;99.90;;;;;;5112669;28;20044;-77
2022/04/26 07:30:34;;;;;;;8.82;2.63;;;8.50;99.90;;;;;;5113031;28;20046;-76
2022/04/26 07:35:45;;;;;;;10.18;2.85;;;8.60;99.90;;;;;;5112899;27;20074;-76
2022/04/26 07:38:10;;;;;;;10.43;2.92;;;8.60;99.90;;;;;;5111082;27;20091;-79
2022/04/26 07:40:36;;;;;;;7.20;2.55;;;8.70;99.90;;;;;;5112367;28;20055;-78
2022/04/26 07:43:03;;;;;;;10.60;2.45;;;8.70;99.90;;;;;;5112323;28;20520;-79
2022/04/26 07:45:30;;;;;;;11.50;2.42;;;8.70;99.90;;;;;;5111362;28;20456;-79
2022/04/26 07:47:56;;;;;;;10.80;3.00;;;8.70;99.90;;;;;;5111936;28;20138;-79
2022/04/26 07:50:22;;;;;;;7.03;2.75;;;8.70;99.90;;;;;;5094474;28;20127;-79
2022/04/26 07:52:48;;;;;;;9.10;1.88;;;8.70;99.90;;;;;;5110728;28;20039;-78
2022/04/26 07:55:13;;;;;;;7.60;2.90;;;8.70;99.90;;;;;;5110864;28;20115;-79
2022/04/26 07:57:39;;;;;;;21.45;12.55;;;8.80;99.90;;;;;;5112570;27;20046;-79
2022/04/26 08:00:06;;;;;;;8.02;2.90;;;8.60;99.90;;;;;;5109659;28;20042;-78
2022/04/26 08:02:32;;;;;;;6.55;2.58;;;8.90;99.90;;;;;;5112778;27;20036;-78
2022/04/26 08:05:01;;;;;;;10.52;2.10;;;8.90;99.90;;;;;;5112172;28;20505;-76
2022/04/26 08:07:31;;;;;;;6.95;2.60;;;9.00;99.90;;;;;;5111620;28;20048;-78
2022/04/26 08:09:57;;;;;;;7.22;2.20;;;9.00;99.90;;;;;;5110791;28;20047;-78
2022/04/26 08:12:22;;;;;;;8.60;2.20;;;9.10;99.90;;;;;;5111461;28;20627;-78
2022/04/26 08:14:48;;;;;;;8.93;2.03;;;9.10;99.90;;;;;;5110234;28;20039;-78
2022/04/26 08:17:17;;;;;;;9.55;2.90;;;9.10;99.90;;;;;;5110426;28;20429;-79
2022/04/26 08:19:43;;;;;;;6.07;2.28;;;8.80;99.90;;;;;;5093723;28;20074;-76
2022/04/26 08:22:08;;;;;;;7.18;2.85;;;9.20;99.90;;;;;;5110528;28;20039;-79
2022/04/26 08:27:25;;;;;;;10.98;2.45;;;9.20;99.90;;;;;;5110536;28;20046;-76
2022/04/26 08:29:53;;;;;;;10.23;2.33;;;9.40;99.90;;;;;;5112031;27;20052;-79
2022/04/26 08:32:19;;;;;;;7.72;1.90;;;9.50;99.90;;;;;;5110816;28;20468;-79
2022/04/26 08:34:45;;;;;;;7.38;2.00;;;9.60;99.90;;;;;;5111166;28;20053;-80
2022/04/26 08:37:11;;;;;;;5.43;1.77;;;9.60;99.90;;;;;;5110756;28;20558;-79
2022/04/26 08:39:36;;;;;;;6.85;1.92;;;10.90;99.90;;;;;;5110296;28;20039;-77
2022/04/26 08:42:04;;;;;;;5.35;1.95;;;9.60;99.90;;;;;;5108933;28;20403;-79
2022/04/26 08:44:30;;;;;;;10.13;2.30;;;9.60;99.90;;;;;;5093599;28;20043;-79
2022/04/26 08:52:26;;;;;;;8.02;2.22;;;9.50;99.90;;;;;;5110634;28;20086;-79
2022/04/26 08:54:52;;;;;;;5.40;2.00;;;9.50;99.90;;;;;;5109984;28;20053;-76
2022/04/26 08:57:18;;;;;;;4.10;1.83;;;9.50;99.90;;;;;;5106176;28;20040;-73
2022/04/26 08:59:51;;;;;;;4.70;2.20;;;9.40;99.90;;;;;;5108856;28;20082;-77
2022/04/26 09:02:22;;;;;;;7.45;1.80;;;9.50;99.90;;;;;;5096782;28;20609;-77
2022/04/26 09:04:53;;;;;;;5.93;1.67;;;9.60;99.90;;;;;;5107954;28;20044;-80
2022/04/26 09:07:32;;;;;;;7.45;2.28;;;9.60;99.90;;;;;;5111046;28;20035;-80
2022/04/26 09:10:09;;;;;;;9.10;2.13;;;9.60;99.90;;;;;;5110056;28;20035;-80
2022/04/26 09:12:59;;;;;;;4.75;1.77;;;9.70;99.90;;;;;;5107432;28;20039;-81
2022/04/26 09:15:25;;;;;;;4.38;1.73;;;9.70;99.90;;;;;;5076047;28;20427;-77
2022/04/26 09:17:52;;;;;;;6.45;1.77;;;9.70;99.90;;;;;;5110576;28;20536;-81
2022/04/26 09:20:33;;;;;;;7.70;2.53;;;9.70;99.90;;;;;;5110186;28;20051;-80
2022/04/26 09:22:59;;;;;;;5.32;1.90;;;10.70;99.90;;;;;;5108930;28;20047;-80
2022/04/26 09:25:25;;;;;;;7.35;1.90;;;9.80;99.90;;;;;;5110073;28;20103;-77
2022/04/26 09:27:57;;;;;;;6.18;2.28;;;9.90;99.90;;;;;;5092401;28;20122;-79
2022/04/26 09:30:29;;;;;;;5.18;1.67;;;10.00;99.90;;;;;;5110264;28;20122;-77
2022/04/26 09:32:54;;;;;;;10.43;2.17;;;9.30;99.90;;;;;;5108373;28;20051;-78
2022/04/26 09:35:30;;;;;;;5.50;1.80;;;10.00;99.90;;;;;;5109611;28;20039;-81
2022/04/26 09:37:55;;;;;;;6.82;1.60;;;10.10;99.90;;;;;;5108245;28;20395;-76
2022/04/26 09:40:21;;;;;;;3.63;1.63;;;10.30;99.90;;;;;;5092575;28;20035;-80
2022/04/26 09:42:50;;;;;;;10.40;2.10;;;10.40;99.90;;;;;;5110742;28;20047;-81
2022/04/26 09:45:16;;;;;;;4.40;1.55;;;10.50;99.90;;;;;;5108440;28;20083;-80
2022/04/26 09:47:44;;;;;;;4.65;1.95;;;10.70;99.90;;;;;;5109926;28;20035;-78
2022/04/26 09:50:12;;;;;;;6.13;1.95;;;10.80;99.90;;;;;;5109084;28;20490;-79
2022/04/26 09:52:38;;;;;;;7.72;1.90;;;10.90;99.90;;;;;;5109067;28;20035;-76
2022/04/26 09:55:06;;;;;;;6.45;1.70;;;11.10;99.90;;;;;;5108868;28;20666;-77
2022/04/26 09:57:33;;;;;;;4.53;1.95;;;11.10;99.90;;;;;;5075817;28;20626;-79
2022/04/26 10:00:00;;;;;;;11.02;2.08;;;11.10;99.90;;;;;;5109182;28;20036;-78
2022/04/26 10:02:33;;;;;;;6.90;1.60;;;11.10;99.90;;;;;;5109020;28;20116;-76
2022/04/26 10:05:03;;;;;;;3.50;2.15;;;12.40;99.90;;;;;;5108341;28;20059;-77
2022/04/26 10:07:36;;;;;;;6.53;1.90;;;11.00;99.90;;;;;;5091336;28;20100;-78
2022/04/26 10:10:03;;;;;;;3.80;2.20;;;11.00;99.90;;;;;;5111717;28;20075;-78
2022/04/26 10:12:31;;;;;;;7.10;2.08;;;11.10;99.90;;;;;;5114657;28;20483;-78
2022/04/26 10:14:58;;;;;;;5.28;1.77;;;11.20;99.90;;;;;;5078733;28;20050;-79
2022/04/26 10:17:23;;;;;;;7.05;2.00;;;11.20;99.90;;;;;;5111538;28;20551;-78
2022/04/26 10:19:49;;;;;;;6.78;1.85;;;11.20;99.90;;;;;;5113427;28;20043;-79
2022/04/26 10:22:17;;;;;;;7.80;2.05;;;11.20;99.90;;;;;;5111793;28;20062;-78
2022/04/26 10:25:21;;;;;;;4.38;1.75;;;11.40;99.90;;;;;;5094600;28;20598;-79
2022/04/26 10:28:26;;;;;;;4.97;1.50;;;11.50;99.90;;;;;;5077619;28;20091;-78
2022/04/26 10:30:56;;;;;;;2.40;1.48;;;11.50;99.90;;;;;;5103815;28;20471;-76
2022/04/26 10:33:36;;;;;;;18.38;10.77;;;11.50;99.90;;;;;;5095656;28;20380;-75
2022/04/26 10:36:34;;;;;;;5.30;2.25;;;11.60;99.90;;;;;;5078042;28;20605;-75
2022/04/26 10:39:07;;;;;;;6.00;1.67;;;11.70;99.90;;;;;;5078180;28;20052;-75
2022/04/26 10:41:39;;;;;;;5.20;1.42;;;11.70;99.90;;;;;;5109944;28;20669;-77
2022/04/26 10:44:14;;;;;;;5.78;2.20;;;11.80;99.90;;;;;;5112399;28;20089;-74
2022/04/26 10:46:42;;;;;;;4.15;1.77;;;11.90;99.90;;;;;;5104943;28;20483;-78
2022/04/26 10:49:26;;;;;;;2.55;1.30;;;12.10;99.90;;;;;;5111214;28;20056;-76
2022/04/26 10:51:57;;;;;;;4.45;1.60;;;12.20;99.90;;;;;;5090059;28;20051;-77
2022/04/26 10:55:02;;;;;;;5.38;1.77;;;13.40;99.90;;;;;;5095451;28;20395;-80
2022/04/26 10:57:29;;;;;;;;;;;12.20;99.90;;;;;;5114169;27;20040;-77
2022/04/26 11:00:00;;;;;;;7.38;1.80;;;12.30;99.90;;;;;;5113547;28;19919;-79
2022/04/26 11:02:28;;;;;;;2.72;1.35;;;12.30;99.90;;;;;;5093016;28;20039;-75
2022/04/26 11:05:02;;;;;;;5.22;1.52;;;12.40;99.90;;;;;;5093125;28;20044;-78
2022/04/26 11:07:29;;;;;;;6.82;1.90;;;12.40;99.90;;;;;;5075105;28;20152;-77
2022/04/26 11:09:59;;;;;;;5.25;1.90;;;12.40;99.90;;;;;;5109849;28;20048;-78
2022/04/26 11:12:33;;;;;;;4.40;1.75;;;12.20;99.90;;;;;;5110406;28;20127;-78
2022/04/26 11:15:08;;;;;;;3.20;1.65;;;12.70;99.90;;;;;;5108799;28;20487;-81
2022/04/26 11:17:34;;;;;;;2.90;1.58;;;13.00;99.90;;;;;;5091532;28;20043;-77
2022/04/26 11:20:08;;;;;;;6.80;2.00;;;13.10;99.90;;;;;;5109710;28;20070;-80
2022/04/26 11:22:43;;;;;;;4.88;2.10;;;13.20;99.90;;;;;;5110282;28;20135;-74
2022/04/26 11:28:11;;;;;;;2.83;1.55;;;13.40;99.80;;;;;;5102267;28;20051;-76
2022/04/26 11:30:36;;;;;;;3.25;1.70;;;13.60;98.70;;;;;;5092426;28;20100;-75
2022/04/26 11:33:23;;;;;;;5.25;1.65;;;13.80;97.90;;;;;;5092110;28;20044;-75
2022/04/26 11:35:54;;;;;;;3.30;1.75;;;14.00;97.70;;;;;;5084517;28;20039;-81
2022/04/26 11:38:20;;;;;;;2.90;1.60;;;14.30;97.30;;;;;;5103699;28;20170;-75
2022/04/26 11:40:51;;;;;;;5.10;2.13;;;14.20;96.90;;;;;;5106336;28;20106;-79
2022/04/26 11:43:26;;;;;;;8.75;2.75;;;14.40;96.60;;;;;;5092137;28;20036;-75
2022/04/26 11:45:53;;;;;;;8.73;2.22;;;14.60;96.30;;;;;;5074172;28;20047;-78
2022/04/26 11:48:21;;;;;;;5.85;2.17;;;15.40;96.50;;;;;;5106433;28;20411;-79
2022/04/26 11:50:48;;;;;;;3.45;1.77;;;14.10;96.20;;;;;;5104639;28;20051;-79
2022/04/26 11:53:17;;;;;;;5.55;1.77;;;14.00;96.20;;;;;;5093532;28;20096;-79
2022/04/26 11:55:51;;;;;;;7.18;2.15;;;15.00;96.50;;;;;;5111425;28;20486;-80
2022/04/26 11:58:22;;;;;;;5.47;1.47;;;13.70;96.50;;;;;;5093587;28;20082;-77
2022/04/26 12:00:56;;;;;;;5.82;1.55;;;13.80;96.70;;;;;;5120032;27;20293;-79
2022/04/26 12:03:25;;;;;;;5.15;1.95;;;14.00;95.30;;;;;;5094260;28;20046;-76
2022/04/26 12:05:57;;;;;;;2.88;1.55;;;14.20;94.70;;;;;;5111373;28;20039;-80
2022/04/26 12:08:23;;;;;;;5.57;2.03;;;14.40;94.00;;;;;;5110643;28;20048;-77
2022/04/26 12:10:49;;;;;;;4.63;1.67;;;14.50;94.30;;;;;;5093685;28;20046;-81
2022/04/26 12:13:26;;;;;;;2.58;1.40;;;14.70;94.10;;;;;;5109954;28;20114;-79
2022/04/26 12:15:51;;;;;;;7.38;1.75;;;14.80;93.40;;;;;;5103981;28;20035;-74
2022/04/26 12:18:17;;;;;;;5.78;1.38;;;14.80;93.40;;;;;;5110450;28;20030;-77
2022/04/26 12:20:58;;;;;;;4.50;2.05;;;14.90;93.80;;;;;;5093671;28;20475;-78
2022/04/26 12:23:24;;;;;;;4.88;1.90;;;15.10;93.80;;;;;;5110345;28;20039;-80
2022/04/26 12:26:03;;;;;;;13.57;6.07;;;15.10;93.50;;;;;;5093358;28;20043;-79
2022/04/26 12:28:29;;;;;;;4.75;1.50;;;15.10;92.80;;;;;;5105988;28;20044;-77
2022/04/26 12:30:55;;;;;;;3.42;1.48;;;15.00;93.20;;;;;;5109955;28;20122;-80
2022/04/26 12:33:25;;;;;;;3.45;1.77;;;14.80;93.10;;;;;;5108371;28;20472;-80
2022/04/26 12:36:03;;;;;;;3.50;1.67;;;14.70;92.40;;;;;;5105789;28;20098;-75
2022/04/26 12:38:29;;;;;;;3.75;1.13;;;14.40;92.80;;;;;;5110077;28;20491;-78
2022/04/26 12:41:05;;;;;;;3.08;1.63;;;14.30;92.50;;;;;;5108801;28;20040;-75
2022/04/26 12:43:32;;;;;;;13.68;9.68;;;14.40;92.60;;;;;;5090906;28;20134;-79
2022/04/26 12:46:03;;;;;;;5.45;2.42;;;14.70;93.10;;;;;;5110456;28;20483;-79
2022/04/26 12:51:25;;;;;;;3.95;1.63;;;14.90;93.00;;;;;;5111345;28;20447;-75
2022/04/26 12:53:52;;;;;;;5.20;1.48;;;15.00;92.90;;;;;;5124247;27;20070;-77
2022/04/26 12:56:19;;;;;;;4.50;1.50;;;15.30;92.90;;;;;;5111241;28;20063;-76
2022/04/26 12:58:47;;;;;;;4.90;1.38;;;15.30;91.60;;;;;;5109314;28;20036;-76
2022/04/26 13:01:13;;;;;;;2.15;1.38;;;15.20;91.20;;;;;;5109653;28;20071;-81
2022/04/26 13:03:41;;;;;;;2.40;1.20;;;16.10;90.80;;;;;;5093151;28;20084;-80
2022/04/26 13:06:12;;;;;;;4.30;1.23;;;14.80;90.90;;;;;;5111088;28;20048;-75
2022/04/26 13:08:39;;;;;;;4.63;1.33;;;15.00;91.50;;;;;;5109166;28;20048;-78
2022/04/26 13:11:06;;;;;;;4.68;1.85;;;14.80;91.30;;;;;;5092192;28;20467;-77
2022/04/26 13:13:33;;;;;;;3.10;1.45;;;15.10;91.70;;;;;;5110912;28;20502;-79
2022/04/26 13:15:59;;;;;;;4.65;1.67;;;15.00;91.00;;;;;;5092640;28;20034;-79
2022/04/26 13:18:25;;;;;;;4.53;1.60;;;15.10;90.70;;;;;;5111103;28;20195;-80
2022/04/26 13:20:54;;;;;;;2.85;1.40;;;15.20;90.90;;;;;;5109677;28;20466;-79
2022/04/26 13:23:21;;;;;;;3.28;1.83;;;15.30;91.00;;;;;;5108882;28;20411;-80
2022/04/26 13:25:46;;;;;;;2.53;1.33;;;15.30;90.90;;;;;;5109625;28;20096;-80
2022/04/26 13:28:12;;;;;;;5.95;1.70;;;15.30;91.00;;;;;;5107990;28;20035;-78
2022/04/26 13:30:38;;;;;;;3.83;1.63;;;16.40;91.00;;;;;;5109740;28;20035;-81
2022/04/26 13:33:04;;;;;;;3.25;1.42;;;15.20;90.60;;;;;;5091777;28;20687;-75
2022/04/26 13:35:30;;;;;;;4.93;1.58;;;15.00;90.90;;;;;;5091960;28;20047;-78
2022/04/26 13:37:58;;;;;;;4.28;2.17;;;14.90;90.70;;;;;;5109724;28;20084;-78
2022/04/26 13:40:24;;;;;;;4.00;1.83;;;14.80;91.20;;;;;;5110962;28;20449;-81
2022/04/26 13:42:51;;;;;;;5.82;1.85;;;14.80;91.70;;;;;;5108258;28;20044;-76
2022/04/26 13:45:17;;;;;;;7.95;3.97;;;15.00;91.80;;;;;;5110095;28;20192;-77
2022/04/26 13:47:45;;;;;;;7.43;3.40;;;15.20;91.20;;;;;;5108749;28;20122;-77
2022/04/26 13:50:11;;;;;;;5.40;2.10;;;15.00;91.00;;;;;;5109183;28;20043;-80
2022/04/26 13:52:38;;;;;;;5.10;1.50;;;14.90;91.10;;;;;;5108865;28;20644;-77
2022/04/26 13:55:04;;;;;;;4.22;1.67;;;14.60;91.10;;;;;;5091667;28;20040;-81
2022/04/26 13:57:30;;;;;;;5.88;2.15;;;14.60;91.40;;;;;;5091413;28;20055;-81
2022/04/26 13:59:55;;;;;;;8.35;2.10;;;14.70;91.50;;;;;;5108593;28;20399;-80
2022/04/26 14:02:21;;;;;;;3.72;1.33;;;14.90;91.60;;;;;;5109007;28;20101;-77
2022/04/26 14:04:47;;;;;;;4.18;1.70;;;14.80;91.10;;;;;;5108665;28;20566;-80
2022/04/26 14:07:13;;;;;;;6.18;1.42;;;16.20;91.10;;;;;;5110052;28;20089;-81
2022/04/26 14:09:39;;;;;;;2.38;1.30;;;15.00;90.90;;;;;;5091622;28;20039;-80
2022/04/26 14:12:07;;;;;;;3.00;1.30;;;14.90;90.80;;;;;;5108209;28;20039;-80
2022/04/26 14:22:47;;;;;;;;;;;14.60;90.80;;;;;;5107928;28;20043;-76
2022/04/26 14:25:13;;;;;;;4.30;1.30;;;14.50;90.60;;;;;;5091396;28;19931;-81
2022/04/26 14:27:42;;;;;;;6.03;1.65;;;15.20;91.10;;;;;;5109821;28;20471;-80
2022/04/26 14:30:09;;;;;;;5.00;1.83;;;14.20;90.70;;;;;;5108238;28;20662;-76
2022/04/26 14:32:35;;;;;;;3.88;1.80;;;14.10;90.90;;;;;;5073841;28;20498;-76
2022/04/26 14:35:01;;;;;;;3.15;1.20;;;13.90;91.10;;;;;;5108568;28;20039;-77
2022/04/26 14:37:27;;;;;;;5.50;1.30;;;13.80;91.40;;;;;;5109721;28;20047;-76
2022/04/26 14:39:53;;;;;;;4.75;2.05;;;13.60;91.80;;;;;;5091053;28;20043;-76
2022/04/26 14:42:20;;;;;;;2.45;1.25;;;13.50;91.80;;;;;;5110220;28;20071;-77
2022/04/26 14:44:46;;;;;;;2.40;1.23;;;13.40;92.00;;;;;;5109005;28;20040;-75
2022/04/26 14:47:12;;;;;;;4.82;1.80;;;13.30;92.00;;;;;;5108090;28;20055;-75
2022/04/26 14:49:38;;;;;;;3.20;1.50;;;13.50;92.20;;;;;;5108491;28;20052;-76
2022/04/26 14:52:06;;;;;;;3.75;1.27;;;13.10;92.40;;;;;;5088700;28;20396;-74
2022/04/26 14:54:33;;;;;;;6.15;1.58;;;13.00;92.60;;;;;;5088565;28;20055;-75
2022/04/26 14:56:58;;;;;;;2.60;1.70;;;12.90;92.80;;;;;;5109077;28;20046;-75
2022/04/26 14:59:25;;;;;;;27.55;17.98;;;12.90;92.90;;;;;;5093152;28;20051;-75
2022/04/26 15:01:52;;;;;;;4.72;1.88;;;13.00;93.00;;;;;;5111739;28;20044;-75
2022/04/26 15:04:19;;;;;;;4.55;1.50;;;13.00;93.10;;;;;;5110687;28;20475;-76
2022/04/26 15:06:46;;;;;;;5.55;1.85;;;13.10;93.30;;;;;;5109477;28;20083;-76
2022/04/26 15:17:26;;;;;;;8.85;1.60;;;13.10;93.20;;;;;;5109267;27;20464;-73
2022/04/26 15:19:52;;;;;;;8.13;1.55;;;13.20;92.70;;;;;;5110056;28;20114;-72
2022/04/26 15:22:19;;;;;;;4.25;1.50;;;13.90;93.20;;;;;;5108396;28;20035;-74
2022/04/26 15:24:48;;;;;;;4.85;1.30;;;13.40;93.20;;;;;;5111572;28;20039;-73
2022/04/26 15:27:15;;;;;;;4.45;1.60;;;13.50;92.70;;;;;;5101472;28;20036;-73
2022/04/26 15:29:42;;;;;;;5.97;1.40;;;13.50;92.60;;;;;;5110968;28;20075;-73
2022/04/26 15:32:08;;;;;;;7.40;1.75;;;13.60;92.50;;;;;;5109748;28;20054;-73
2022/04/26 15:34:34;;;;;;;5.45;1.75;;;13.60;92.40;;;;;;5109363;28;20141;-73
2022/04/26 15:37:00;;;;;;;6.35;1.55;;;13.60;92.20;;;;;;5110692;28;20118;-73
2022/04/26 15:39:26;;;;;;;5.88;1.75;;;13.60;92.30;;;;;;5109947;28;20043;-74
2022/04/26 15:41:52;;;;;;;2.70;1.25;;;13.70;92.20;;;;;;5109783;28;20099;-74
2022/04/26 15:44:18;;;;;;;3.80;1.75;;;15.10;92.60;;;;;;5111555;28;20031;-74
2022/04/26 15:46:45;;;;;;;5.28;2.28;;;13.80;91.20;;;;;;5105607;28;20046;-74
2022/04/26 15:49:10;;;;;;;4.18;2.38;;;13.80;90.80;;;;;;5108443;28;20139;-74
2022/04/26 15:51:36;;;;;;;5.75;2.83;;;13.90;90.80;;;;;;5117675;27;20118;-74
2022/04/26 15:54:02;;;;;;;3.92;1.58;;;13.90;90.50;;;;;;5109759;28;20395;-80
2022/04/26 15:56:27;;;;;;;7.95;2.67;;;13.90;90.30;;;;;;5110674;28;20039;-78
2022/04/26 15:58:54;;;;;;;3.00;1.55;;;14.00;90.30;;;;;;5107517;28;20433;-80
2022/04/26 16:01:19;;;;;;;3.38;1.50;;;14.00;90.30;;;;;;5108366;28;20039;-77
2022/04/26 16:03:45;;;;;;;5.65;1.40;;;14.00;90.30;;;;;;5109383;28;20088;-77
2022/04/26 16:06:11;;;;;;;3.50;1.40;;;14.00;90.20;;;;;;5092208;28;20448;-76
2022/04/26 16:08:37;;;;;;;5.45;1.80;;;14.10;90.20;;;;;;5109397;28;20047;-76
2022/04/26 16:22:01;;;;;;;5.28;3.42;;;14.80;90.00;;;;;;5107618;28;20074;-76
2022/04/26 16:24:26;;;;;;;10.38;4.53;;;14.30;90.70;;;;;;5109189;28;20050;-79
2022/04/26 16:26:52;;;;;;;8.73;2.25;;;13.80;91.30;;;;;;5109028;28;20044;-78
2022/04/26 16:29:18;;;;;;;14.82;3.25;;;13.80;91.30;;;;;;5109851;28;20040;-77
2022/04/26 16:31:44;;;;;;;6.45;2.05;;;13.80;91.30;;;;;;5104706;28;20043;-76
2022/04/26 16:34:09;;;;;;;5.00;1.67;;;13.80;91.70;;;;;;5108947;28;20040;-76
2022/04/26 16:36:36;;;;;;;5.18;2.22;;;13.80;91.40;;;;;;5091487;28;20109;-79
2022/04/26 16:39:03;;;;;;;5.45;2.33;;;13.70;91.00;;;;;;5109098;28;20047;-77
2022/04/26 16:41:30;;;;;;;5.50;2.17;;;13.70;91.30;;;;;;5091750;28;20040;-78
2022/04/26 16:43:55;;;;;;;15.50;3.53;;;14.60;91.20;;;;;;5108092;28;20050;-78
2022/04/26 16:46:22;;;;;;;7.00;2.15;;;13.70;90.80;;;;;;5108171;28;20040;-77
2022/04/26 16:48:48;;;;;;;2.17;1.13;;;13.60;90.60;;;;;;5107895;28;20058;-78
2022/04/26 16:51:17;;;;;;;5.28;1.42;;;13.50;90.70;;;;;;5108196;28;20047;-78
2022/04/26 16:53:44;;;;;;;7.20;2.80;;;13.40;90.10;;;;;;5091115;28;20111;-78
2022/04/26 16:56:09;;;;;;;7.70;2.88;;;13.30;90.40;;;;;;5091381;28;20047;-77
2022/04/26 16:58:35;;;;;;;7.57;2.10;;;13.70;90.70;;;;;;5109511;28;20043;-75
2022/04/26 17:01:01;;;;;;;6.25;1.80;;;12.90;90.90;;;;;;5107411;28;20036;-77
2022/04/26 17:03:27;;;;;;;8.52;1.77;;;12.70;91.10;;;;;;5091310;28;20255;-78
2022/04/26 17:05:53;;;;;;;3.13;1.52;;;12.60;91.10;;;;;;5091355;28;20133;-76
2022/04/26 17:08:20;;;;;;;5.22;1.77;;;12.40;91.50;;;;;;5108463;28;20062;-76
2022/04/26 17:10:47;;;;;;;4.35;1.10;;;12.30;91.70;;;;;;5109998;28;20126;-76
2022/04/26 17:13:13;;;;;;;3.95;1.20;;;12.10;91.40;;;;;;5092012;28;20039;-76